createdAt,value
2019-01-21T00:00:15.690Z,68.70
2019-01-21T00:02:48.831Z,69.00
2019-01-21T00:05:20.931Z,69.20
2019-01-21T00:07:53.890Z,69.60
2019-01-21T00:10:27.052Z,69.40
2019-01-21T00:12:59.870Z,69.40
2019-01-21T00:15:32.628Z,69.10
2019-01-21T00:18:05.411Z,68.90
2019-01-21T00:20:38.090Z,68.20
2019-01-21T00:23:11.674Z,68.40
2019-01-21T00:25:45.075Z,68.30
2019-01-21T00:28:17.572Z,69.30
2019-01-21T00:30:49.551Z,68.80
2019-01-21T00:33:22.071Z,68.60
2019-01-21T00:35:54.213Z,68.80
2019-01-21T00:38:26.970Z,69.10
2019-01-21T00:41:00.010Z,69.10
2019-01-21T00:43:32.331Z,69.00
2019-01-21T00:46:05.232Z,69.00
2019-01-21T00:48:38.033Z,69.00
2019-01-21T00:51:13.391Z,69.00
2019-01-21T00:53:46.010Z,69.10
2019-01-21T00:56:19.594Z,69.00
2019-01-21T00:58:52.669Z,69.00
2019-01-21T01:01:24.510Z,69.00
2019-01-21T01:03:56.910Z,68.80
2019-01-21T01:06:30.189Z,68.30
2019-01-21T01:09:03.486Z,68.10
2019-01-21T01:11:35.970Z,68.20
2019-01-21T01:14:08.530Z,68.10
2019-01-21T01:16:41.230Z,68.20
2019-01-21T01:19:13.570Z,68.40
2019-01-21T01:21:45.871Z,68.70
2019-01-21T01:24:18.730Z,68.90
2019-01-21T01:26:51.351Z,69.10
2019-01-21T01:29:23.431Z,69.40
2019-01-21T01:31:55.970Z,69.50
2019-01-21T01:34:28.770Z,69.00
2019-01-21T01:37:00.810Z,68.90
2019-01-21T01:39:33.590Z,68.80
2019-01-21T01:42:06.753Z,68.60
2019-01-21T01:44:39.570Z,68.60
2019-01-21T01:47:11.956Z,68.50
2019-01-21T01:49:45.292Z,68.30
2019-01-21T01:52:17.830Z,68.30
2019-01-21T01:54:50.389Z,68.60
2019-01-21T01:57:22.850Z,68.40
2019-01-21T01:59:55.290Z,68.30
2019-01-21T02:02:27.229Z,68.20
2019-01-21T02:05:00.237Z,68.60
2019-01-21T02:07:33.251Z,69.10
2019-01-21T02:10:06.864Z,69.40
2019-01-21T02:12:40.270Z,69.60
2019-01-21T02:15:13.830Z,69.40
2019-01-21T02:17:52.026Z,69.80
2019-01-21T02:20:20.231Z,69.90
2019-01-21T02:22:58.010Z,70.10
2019-01-21T02:25:57.530Z,69.80
2019-01-21T02:28:59.190Z,69.70
2019-01-21T02:32:19.670Z,69.20
2019-01-21T02:35:21.152Z,69.30
2019-01-21T02:38:27.292Z,69.60
2019-01-21T02:41:41.810Z,69.70
2019-01-21T02:44:49.708Z,70.00
2019-01-21T02:48:00.290Z,69.60
2019-01-21T02:50:53.431Z,69.40
2019-01-21T02:53:48.571Z,69.70
2019-01-21T02:56:55.493Z,69.40
2019-01-21T02:59:58.529Z,69.10
2019-01-21T03:02:53.632Z,69.10
2019-01-21T03:06:00.269Z,69.30
2019-01-21T03:09:09.190Z,68.70
2019-01-21T03:12:13.530Z,68.70
2019-01-21T03:15:47.554Z,68.70
2019-01-21T03:18:49.811Z,68.70
2019-01-21T03:22:00.771Z,68.80
2019-01-21T03:25:09.210Z,68.70
2019-01-21T03:28:16.052Z,68.70
2019-01-21T03:31:33.211Z,69.40
2019-01-21T03:34:43.192Z,68.80
2019-01-21T03:37:50.032Z,69.10
2019-01-21T03:40:59.550Z,69.50
2019-01-21T03:43:59.695Z,69.90
2019-01-21T03:46:54.769Z,70.00
2019-01-21T03:49:57.591Z,69.70
2019-01-21T03:53:07.571Z,69.30
2019-01-21T03:55:40.110Z,69.00
2019-01-21T03:58:46.232Z,69.30
2019-01-21T04:02:13.590Z,68.90
2019-01-21T04:05:15.729Z,68.40
2019-01-21T04:08:58.851Z,68.50
2019-01-21T04:12:07.038Z,68.60
2019-01-21T04:15:20.312Z,68.40
2019-01-21T04:18:29.390Z,68.30
2019-01-21T04:21:42.770Z,68.30
2019-01-21T04:25:04.690Z,69.10
2019-01-21T04:27:46.490Z,68.50
2019-01-21T04:30:34.851Z,68.70
2019-01-21T04:33:17.090Z,68.80
2019-01-21T04:36:31.654Z,68.70
2019-01-21T04:39:36.669Z,69.30
2019-01-21T04:42:38.191Z,68.70
2019-01-21T04:45:45.010Z,69.20
2019-01-21T04:48:51.472Z,69.30
2019-01-21T04:52:02.213Z,69.20
2019-01-21T04:55:11.132Z,68.60
2019-01-21T04:58:18.210Z,68.90
2019-01-21T05:01:29.969Z,68.50
2019-01-21T05:04:48.131Z,68.30
2019-01-21T05:07:58.610Z,68.20
2019-01-21T05:10:58.710Z,68.10
2019-01-21T05:13:55.230Z,68.40
2019-01-21T05:17:13.090Z,68.40
2019-01-21T05:20:03.870Z,68.60
2019-01-21T05:23:20.513Z,68.20
2019-01-21T05:26:22.749Z,68.30
2019-01-21T05:29:46.270Z,68.50
2019-01-21T05:32:57.252Z,68.80
2019-01-21T05:35:53.350Z,68.90
2019-01-21T05:38:54.830Z,68.90
2019-01-21T05:42:11.472Z,68.90
2019-01-21T05:45:26.551Z,69.00
2019-01-21T05:48:31.470Z,69.30
2019-01-21T05:51:50.050Z,69.50
2019-01-21T05:55:20.752Z,69.70
2019-01-21T05:58:32.732Z,69.50
2019-01-21T06:01:33.192Z,69.80
2019-01-21T06:04:36.032Z,70.10
2019-01-21T06:08:07.450Z,69.90
2019-01-21T06:10:52.691Z,69.80
2019-01-21T06:13:59.013Z,70.00
2019-01-21T06:17:16.090Z,70.20
2019-01-21T06:20:19.134Z,70.10
2019-01-21T06:23:13.191Z,70.40
2019-01-21T06:26:23.911Z,69.90
2019-01-21T06:29:14.690Z,70.10
2019-01-21T06:32:32.092Z,70.40
2019-01-21T06:35:45.111Z,70.80
2019-01-21T06:39:13.450Z,71.30
2019-01-21T06:42:32.130Z,71.50
2019-01-21T06:45:56.990Z,70.90
2019-01-21T06:49:04.637Z,70.60
2019-01-21T06:52:15.050Z,70.90
2019-01-21T06:55:15.310Z,71.00
2019-01-21T06:58:41.590Z,71.30
2019-01-21T07:01:55.392Z,71.40
2019-01-21T07:05:12.991Z,70.90
2019-01-21T07:08:27.590Z,70.80
2019-01-21T07:11:35.550Z,71.20
2019-01-21T07:14:32.173Z,71.30
2019-01-21T07:17:14.110Z,70.80
2019-01-21T07:20:18.510Z,70.40
2019-01-21T07:23:31.094Z,70.80
2019-01-21T07:26:36.686Z,71.40
2019-01-21T07:30:16.531Z,70.40
2019-01-21T07:33:17.696Z,70.40
2019-01-21T07:36:12.371Z,70.70
2019-01-21T07:39:20.938Z,70.90
2019-01-21T07:42:29.710Z,70.80
2019-01-21T07:45:43.765Z,70.70
2019-01-21T07:48:32.512Z,71.00
2019-01-21T07:51:40.530Z,70.90
2019-01-21T07:55:03.590Z,70.20
2019-01-21T07:58:08.993Z,70.30
2019-01-21T08:01:10.247Z,69.90
2019-01-21T08:04:34.010Z,69.90
2019-01-21T08:07:34.750Z,70.20
2019-01-21T08:10:52.685Z,70.10
2019-01-21T08:13:45.674Z,69.90
2019-01-21T08:16:50.493Z,70.10
2019-01-21T08:19:37.715Z,70.20
2019-01-21T08:23:14.028Z,70.00
2019-01-21T08:26:24.630Z,70.10
2019-01-21T08:29:10.588Z,70.60
2019-01-21T08:32:27.508Z,70.40
2019-01-21T08:35:36.569Z,70.50
2019-01-21T08:38:44.077Z,70.30
2019-01-21T08:41:56.297Z,69.80
2019-01-21T08:45:03.476Z,69.80
2019-01-21T08:48:14.278Z,70.10
2019-01-21T08:51:17.232Z,70.00
2019-01-21T08:54:13.151Z,69.90
2019-01-21T08:57:15.160Z,69.10
2019-01-21T09:00:18.160Z,69.00
2019-01-21T09:03:24.560Z,69.60
2019-01-21T09:06:19.900Z,69.70
2019-01-21T09:09:22.221Z,69.10
2019-01-21T09:12:31.882Z,68.70
2019-01-21T09:15:29.982Z,68.80
2019-01-21T09:19:03.243Z,68.60
2019-01-21T09:21:58.822Z,68.40
2019-01-21T09:25:13.742Z,68.60
2019-01-21T09:28:20.102Z,67.90
2019-01-21T09:31:12.942Z,67.80
2019-01-21T09:34:14.683Z,67.60
2019-01-21T09:36:51.923Z,67.20
2019-01-21T09:39:53.422Z,67.70
2019-01-21T09:42:43.841Z,67.30
2019-01-21T09:45:39.982Z,66.80
2019-01-21T09:48:09.483Z,66.80
2019-01-21T09:50:42.079Z,66.30
2019-01-21T09:53:14.122Z,66.60
2019-01-21T09:55:49.537Z,66.80
2019-01-21T09:58:24.818Z,66.70
2019-01-21T10:00:56.864Z,66.30
2019-01-21T10:03:30.097Z,66.20
2019-01-21T10:06:06.378Z,66.80
2019-01-21T10:08:56.118Z,66.10
2019-01-21T10:12:00.019Z,66.20
2019-01-21T10:15:30.160Z,66.00
2019-01-21T10:18:29.138Z,66.60
2019-01-21T10:21:43.697Z,66.40
2019-01-21T10:24:37.697Z,66.00
2019-01-21T10:27:49.599Z,65.50
2019-01-21T10:31:02.825Z,65.40
2019-01-21T10:34:33.265Z,65.40
2019-01-21T10:37:44.745Z,65.30
2019-01-21T10:40:41.805Z,64.80
2019-01-21T10:43:35.233Z,64.70
2019-01-21T10:46:33.161Z,66.10
2019-01-21T10:49:29.023Z,65.10
2019-01-21T10:52:59.220Z,64.50
2019-01-21T10:55:58.903Z,64.30
2019-01-21T10:59:00.449Z,64.00
2019-01-21T11:01:51.088Z,64.60
2019-01-21T11:04:37.570Z,64.40
2019-01-21T11:07:32.399Z,64.00
2019-01-21T11:10:51.584Z,64.30
2019-01-21T11:13:59.287Z,64.60
2019-01-21T11:17:16.564Z,64.80
2019-01-21T11:20:15.805Z,64.40
2019-01-21T11:23:03.926Z,64.10
2019-01-21T11:26:33.675Z,64.60
2019-01-21T11:29:27.941Z,63.90
2019-01-21T11:32:44.118Z,63.60
2019-01-21T11:35:35.621Z,64.10
2019-01-21T11:38:33.312Z,63.80
2019-01-21T11:41:48.678Z,64.30
2019-01-21T11:44:53.341Z,64.00
2019-01-21T11:47:51.087Z,63.80
2019-01-21T11:50:57.787Z,64.50
2019-01-21T11:54:22.044Z,63.30
2019-01-21T11:57:06.723Z,63.60
2019-01-21T12:00:05.624Z,64.00
2019-01-21T12:03:02.545Z,64.40
2019-01-21T12:05:58.169Z,64.70
2019-01-21T12:09:31.624Z,63.90
2019-01-21T12:12:36.783Z,64.30
2019-01-21T12:15:26.384Z,64.10
2019-01-21T12:18:21.829Z,64.00
2019-01-21T12:21:43.253Z,63.90
2019-01-21T12:24:30.129Z,64.20
2019-01-21T12:28:00.861Z,63.80
2019-01-21T12:30:56.942Z,64.10
2019-01-21T12:34:07.501Z,63.40
2019-01-21T12:37:04.599Z,64.30
2019-01-21T12:39:59.227Z,64.30
2019-01-21T12:42:56.186Z,64.20
2019-01-21T12:45:59.664Z,64.20
2019-01-21T12:49:12.423Z,63.80
2019-01-21T12:52:18.646Z,64.30
2019-01-21T12:55:29.025Z,63.90
2019-01-21T12:58:44.105Z,63.00
2019-01-21T13:01:34.606Z,63.30
2019-01-21T13:04:43.266Z,63.40
2019-01-21T13:08:10.366Z,63.80
2019-01-21T13:11:11.385Z,63.70
2019-01-21T13:14:09.674Z,64.30
2019-01-21T13:17:04.148Z,64.30
2019-01-21T13:19:57.944Z,64.50
2019-01-21T13:23:05.306Z,64.70
2019-01-21T13:26:20.165Z,64.30
2019-01-21T13:29:31.945Z,64.30
2019-01-21T13:32:47.245Z,64.50
2019-01-21T13:36:12.984Z,64.90
2019-01-21T13:39:32.866Z,65.00
2019-01-21T13:42:36.044Z,64.80
2019-01-21T13:45:56.046Z,65.30
2019-01-21T13:49:00.365Z,65.10
2019-01-21T13:52:12.305Z,65.10
2019-01-21T13:55:27.365Z,65.40
2019-01-21T13:58:38.865Z,65.20
2019-01-21T14:02:00.605Z,64.70
2019-01-21T14:05:14.126Z,64.70
2019-01-21T14:08:20.764Z,64.90
2019-01-21T14:11:28.395Z,64.80
2019-01-21T14:14:31.697Z,64.80
2019-01-21T14:17:58.555Z,65.20
2019-01-21T14:20:48.029Z,65.10
2019-01-21T14:23:28.544Z,65.10
2019-01-21T14:26:31.644Z,65.10
2019-01-21T14:29:19.805Z,65.60
2019-01-21T14:32:04.464Z,65.10
2019-01-21T14:35:26.410Z,64.20
2019-01-21T14:38:38.182Z,64.80
2019-01-21T14:41:41.900Z,64.70
2019-01-21T14:44:35.769Z,64.30
2019-01-21T14:48:05.920Z,64.70
2019-01-21T14:51:00.107Z,64.40
2019-01-21T14:53:59.789Z,64.70
2019-01-21T14:56:45.370Z,64.80
2019-01-21T14:59:42.556Z,64.70
2019-01-21T15:03:06.283Z,64.90
2019-01-21T15:06:17.529Z,65.30
2019-01-21T15:09:00.056Z,65.10
2019-01-21T15:12:13.613Z,65.20
2019-01-21T15:15:33.599Z,65.10
2019-01-21T15:18:39.740Z,65.10
2019-01-21T15:21:38.739Z,65.60
2019-01-21T15:24:38.409Z,65.40
2019-01-21T15:27:34.838Z,65.20
2019-01-21T15:30:53.405Z,64.80
2019-01-21T15:34:08.221Z,64.80
2019-01-21T15:37:12.319Z,65.10
2019-01-21T15:40:26.506Z,65.10
2019-01-21T15:43:33.277Z,65.10
2019-01-21T15:46:25.395Z,64.50
2019-01-21T15:49:35.164Z,65.10
2019-01-21T15:52:20.985Z,64.80
2019-01-21T15:55:37.884Z,64.60
2019-01-21T15:58:45.963Z,64.40
2019-01-21T16:01:51.585Z,64.60
2019-01-21T16:04:41.074Z,64.90
2019-01-21T16:07:22.451Z,64.90
2019-01-21T16:10:23.622Z,65.70
2019-01-21T16:13:24.982Z,65.00
2019-01-21T16:17:00.058Z,65.10
2019-01-21T16:20:16.202Z,65.10
2019-01-21T16:23:55.000Z,65.20
2019-01-21T16:26:45.960Z,65.80
2019-01-21T16:29:30.069Z,65.00
2019-01-21T16:32:25.811Z,64.30
2019-01-21T16:36:05.620Z,64.40
2019-01-21T16:39:15.038Z,64.80
2019-01-21T16:42:19.354Z,65.00
2019-01-21T16:44:52.186Z,65.20
2019-01-21T16:47:23.658Z,65.20
2019-01-21T16:49:55.875Z,65.30
2019-01-21T16:52:28.133Z,65.70
2019-01-21T16:55:00.987Z,65.90
2019-01-21T16:57:33.346Z,66.00
2019-01-21T17:00:06.688Z,66.30
2019-01-21T17:02:39.076Z,66.60
2019-01-21T17:05:11.606Z,66.30
2019-01-21T17:07:43.588Z,66.40
2019-01-21T17:10:16.189Z,66.30
2019-01-21T17:12:48.743Z,67.10
2019-01-21T17:15:20.667Z,66.20
2019-01-21T17:17:52.162Z,66.00
2019-01-21T17:20:24.317Z,66.40
2019-01-21T17:22:56.756Z,65.70
2019-01-21T17:25:28.852Z,65.70
2019-01-21T17:28:01.386Z,65.90
2019-01-21T17:30:32.948Z,65.90
2019-01-21T17:33:05.005Z,66.00
2019-01-21T17:35:37.330Z,66.00
2019-01-21T17:38:09.389Z,66.10
2019-01-21T17:40:40.950Z,66.80
2019-01-21T17:43:12.759Z,66.20
2019-01-21T17:45:44.546Z,66.40
2019-01-21T17:48:17.644Z,66.80
2019-01-21T17:50:50.498Z,66.90
2019-01-21T17:53:22.379Z,66.80
2019-01-21T17:55:55.116Z,66.70
2019-01-21T17:58:30.421Z,66.70
2019-01-21T18:01:03.047Z,66.70
2019-01-21T18:03:35.949Z,66.50
2019-01-21T18:06:08.308Z,66.60
2019-01-21T18:08:40.312Z,66.60
2019-01-21T18:11:12.343Z,66.80
2019-01-21T18:13:44.543Z,66.90
2019-01-21T18:16:16.244Z,67.10
2019-01-21T18:18:48.068Z,67.00
2019-01-21T18:21:19.384Z,67.00
2019-01-21T18:23:51.706Z,66.90
2019-01-21T18:26:23.318Z,67.10
2019-01-21T18:29:00.700Z,67.10
2019-01-21T18:31:31.984Z,67.20
2019-01-21T18:34:04.043Z,67.30
2019-01-21T18:36:36.822Z,67.30
2019-01-21T18:39:14.103Z,67.50
2019-01-21T18:41:46.684Z,67.40
2019-01-21T18:44:19.043Z,67.20
2019-01-21T18:46:52.565Z,68.10
2019-01-21T18:49:24.542Z,67.50
2019-01-21T18:51:57.204Z,67.40
2019-01-21T18:54:29.704Z,67.40
2019-01-21T18:57:02.382Z,67.40
2019-01-21T18:59:34.963Z,67.50
2019-01-21T19:02:07.782Z,67.40
2019-01-21T19:04:40.344Z,67.30
2019-01-21T19:07:12.963Z,67.60
2019-01-21T19:09:46.764Z,67.50
2019-01-21T19:12:19.884Z,67.10
2019-01-21T19:14:52.469Z,67.30
2019-01-21T19:17:25.183Z,67.20
2019-01-21T19:19:58.163Z,66.90
2019-01-21T19:22:30.964Z,67.10
2019-01-21T19:25:03.743Z,67.10
2019-01-21T19:27:35.106Z,67.10
2019-01-21T19:30:09.763Z,67.50
2019-01-21T19:32:42.610Z,67.70
2019-01-21T19:35:16.043Z,67.90
2019-01-21T19:37:48.463Z,67.70
2019-01-21T19:40:22.262Z,67.60
2019-01-21T19:42:54.163Z,67.30
2019-01-21T19:45:27.503Z,67.10
2019-01-21T19:48:00.364Z,67.20
2019-01-21T19:50:32.024Z,67.40
2019-01-21T19:53:04.439Z,67.10
2019-01-21T19:55:39.446Z,67.10
2019-01-21T19:58:12.964Z,67.10
2019-01-21T20:00:45.783Z,67.00
2019-01-21T20:03:17.882Z,67.20
2019-01-21T20:05:50.544Z,66.90
2019-01-21T20:08:23.704Z,66.90
2019-01-21T20:10:56.603Z,67.40
2019-01-21T20:13:29.563Z,67.30
2019-01-21T20:16:02.246Z,67.00
2019-01-21T20:18:35.482Z,66.70
2019-01-21T20:21:07.663Z,66.50
2019-01-21T20:23:40.466Z,66.30
2019-01-21T20:26:13.423Z,66.20
2019-01-21T20:28:45.741Z,65.90
2019-01-21T20:31:18.282Z,65.90
2019-01-21T20:33:52.235Z,66.30
2019-01-21T20:36:24.725Z,66.10
2019-01-21T20:38:57.063Z,67.00
2019-01-21T20:41:29.602Z,66.20
2019-01-21T20:44:02.222Z,66.30
2019-01-21T20:46:35.060Z,66.40
2019-01-21T20:49:07.582Z,66.50
2019-01-21T20:51:39.863Z,66.40
2019-01-21T20:54:12.584Z,66.30
2019-01-21T20:56:45.282Z,66.30
2019-01-21T20:59:17.602Z,66.50
2019-01-21T21:01:50.721Z,66.30
2019-01-21T21:04:23.300Z,66.20
2019-01-21T21:06:55.889Z,66.10
2019-01-21T21:09:28.422Z,66.30
2019-01-21T21:12:01.083Z,66.40
2019-01-21T21:14:33.142Z,66.70
2019-01-21T21:17:05.502Z,66.80
2019-01-21T21:19:38.281Z,66.80
2019-01-21T21:22:10.802Z,66.90
2019-01-21T21:24:42.706Z,66.80
2019-01-21T21:27:15.781Z,66.60
2019-01-21T21:29:49.026Z,66.50
2019-01-21T21:32:21.883Z,66.70
2019-01-21T21:34:54.861Z,66.50
2019-01-21T21:37:28.042Z,66.50
2019-01-21T21:40:00.173Z,66.50
2019-01-21T21:42:32.782Z,66.40
2019-01-21T21:45:04.881Z,66.40
2019-01-21T21:47:37.841Z,66.40
2019-01-21T21:50:14.002Z,66.50
2019-01-21T21:52:46.701Z,66.50
2019-01-21T21:55:19.703Z,66.50
2019-01-21T21:57:52.567Z,66.40
2019-01-21T22:00:26.961Z,66.20
2019-01-21T22:02:59.721Z,66.60
2019-01-21T22:05:32.421Z,66.90
2019-01-21T22:08:04.826Z,66.10
2019-01-21T22:10:37.761Z,66.30
2019-01-21T22:13:12.684Z,66.20
2019-01-21T22:15:45.844Z,66.10
2019-01-21T22:18:18.561Z,66.30
2019-01-21T22:20:52.162Z,66.40
2019-01-21T22:23:24.986Z,66.60
2019-01-21T22:25:57.641Z,66.60
2019-01-21T22:28:30.381Z,66.80
2019-01-21T22:31:03.961Z,66.60
2019-01-21T22:33:35.782Z,66.70
2019-01-21T22:36:08.106Z,66.70
2019-01-21T22:38:41.262Z,66.80
2019-01-21T22:41:14.021Z,67.00
2019-01-21T22:43:46.161Z,66.60
2019-01-21T22:46:19.003Z,66.20
2019-01-21T22:48:51.021Z,66.10
2019-01-21T22:51:27.623Z,66.20
2019-01-21T22:53:59.985Z,66.10
2019-01-21T22:56:33.122Z,65.90
2019-01-21T22:59:06.103Z,66.20
2019-01-21T23:01:39.580Z,66.30
2019-01-21T23:04:11.821Z,66.10
2019-01-21T23:06:44.141Z,66.30
2019-01-21T23:09:17.181Z,66.30
2019-01-21T23:11:50.922Z,65.80
2019-01-21T23:14:22.843Z,65.70
2019-01-21T23:16:55.362Z,65.60
2019-01-21T23:19:28.625Z,65.70
2019-01-21T23:22:01.926Z,65.50
2019-01-21T23:24:34.243Z,65.50
2019-01-21T23:27:07.461Z,65.50
2019-01-21T23:29:40.702Z,65.40
2019-01-21T23:32:13.763Z,65.40
2019-01-21T23:34:46.322Z,65.40
2019-01-21T23:37:19.102Z,65.60
2019-01-21T23:39:51.664Z,65.40
2019-01-21T23:42:24.884Z,65.30
2019-01-21T23:44:58.103Z,65.50
2019-01-21T23:47:30.982Z,65.60
2019-01-21T23:50:02.942Z,65.40
2019-01-21T23:52:35.182Z,65.60
2019-01-21T23:55:09.011Z,65.40
2019-01-21T23:57:42.321Z,65.50
